sensor_id;sensor_type;location;lat;lon;timestamp;P1;durP1;ratioP1;P2;durP2;ratioP2
81648;SDS011;71057;51.436;6.768;2023-07-02T00:00:03;4.17;;;3.23;;
81648;SDS011;71057;51.436;6.768;2023-07-02T00:02:30;6.53;;;3.72;;
81648;SDS011;71057;51.436;6.768;2023-07-02T00:04:56;5.40;;;3.77;;
81648;SDS011;71057;51.436;6.768;2023-07-02T00:07:21;7.15;;;3.35;;
81648;SDS011;71057;51.436;6.768;2023-07-02T00:09:46;8.13;;;3.80;;
81648;SDS011;71057;51.436;6.768;2023-07-02T00:12:12;7.60;;;4.38;;
81648;SDS011;71057;51.436;6.768;2023-07-02T00:14:40;6.45;;;3.28;;
81648;SDS011;71057;51.436;6.768;2023-07-02T00:17:06;5.65;;;3.70;;
81648;SDS011;71057;51.436;6.768;2023-07-02T00:19:31;6.82;;;4.00;;
81648;SDS011;71057;51.436;6.768;2023-07-02T00:21:56;8.13;;;4.68;;
81648;SDS011;71057;51.436;6.768;2023-07-02T00:24:23;7.35;;;3.83;;
81648;SDS011;71057;51.436;6.768;2023-07-02T00:26:48;6.82;;;3.78;;
81648;SDS011;71057;51.436;6.768;2023-07-02T00:29:13;6.73;;;3.97;;
81648;SDS011;71057;51.436;6.768;2023-07-02T00:31:42;7.47;;;4.20;;
81648;SDS011;71057;51.436;6.768;2023-07-02T00:34:10;6.57;;;3.70;;
81648;SDS011;71057;51.436;6.768;2023-07-02T00:36:35;10.03;;;3.90;;
81648;SDS011;71057;51.436;6.768;2023-07-02T00:39:00;5.77;;;3.70;;
81648;SDS011;71057;51.436;6.768;2023-07-02T00:41:26;6.10;;;3.70;;
81648;SDS011;71057;51.436;6.768;2023-07-02T00:43:51;8.07;;;4.00;;
81648;SDS011;71057;51.436;6.768;2023-07-02T00:46:19;7.05;;;3.55;;
81648;SDS011;71057;51.436;6.768;2023-07-02T00:48:47;7.05;;;3.90;;
81648;SDS011;71057;51.436;6.768;2023-07-02T00:54:06;6.93;;;3.47;;
81648;SDS011;71057;51.436;6.768;2023-07-02T00:56:31;9.60;;;4.03;;
81648;SDS011;71057;51.436;6.768;2023-07-02T00:58:56;7.75;;;4.28;;
81648;SDS011;71057;51.436;6.768;2023-07-02T01:01:24;6.45;;;3.50;;
81648;SDS011;71057;51.436;6.768;2023-07-02T01:03:53;8.40;;;4.18;;
81648;SDS011;71057;51.436;6.768;2023-07-02T01:06:34;8.50;;;4.53;;
81648;SDS011;71057;51.436;6.768;2023-07-02T01:09:02;8.02;;;4.28;;
81648;SDS011;71057;51.436;6.768;2023-07-02T01:11:40;8.55;;;4.50;;
81648;SDS011;71057;51.436;6.768;2023-07-02T01:14:12;6.07;;;3.65;;
81648;SDS011;71057;51.436;6.768;2023-07-02T01:16:41;6.13;;;3.83;;
81648;SDS011;71057;51.436;6.768;2023-07-02T01:19:11;6.05;;;3.72;;
81648;SDS011;71057;51.436;6.768;2023-07-02T01:21:38;5.40;;;3.63;;
81648;SDS011;71057;51.436;6.768;2023-07-02T01:24:04;7.70;;;4.10;;
81648;SDS011;71057;51.436;6.768;2023-07-02T01:26:31;7.35;;;4.25;;
81648;SDS011;71057;51.436;6.768;2023-07-02T01:29:17;7.43;;;4.28;;
81648;SDS011;71057;51.436;6.768;2023-07-02T01:31:46;6.97;;;4.10;;
81648;SDS011;71057;51.436;6.768;2023-07-02T01:34:12;11.00;;;4.75;;
81648;SDS011;71057;51.436;6.768;2023-07-02T01:36:38;5.97;;;3.75;;
81648;SDS011;71057;51.436;6.768;2023-07-02T01:39:04;7.78;;;4.32;;
81648;SDS011;71057;51.436;6.768;2023-07-02T01:41:31;11.43;;;4.75;;
81648;SDS011;71057;51.436;6.768;2023-07-02T01:44:02;11.60;;;4.28;;
81648;SDS011;71057;51.436;6.768;2023-07-02T01:46:28;7.65;;;5.00;;
81648;SDS011;71057;51.436;6.768;2023-07-02T01:48:53;9.23;;;4.83;;
81648;SDS011;71057;51.436;6.768;2023-07-02T01:51:18;8.60;;;4.50;;
81648;SDS011;71057;51.436;6.768;2023-07-02T01:53:43;9.63;;;5.27;;
81648;SDS011;71057;51.436;6.768;2023-07-02T01:56:09;9.82;;;4.95;;
81648;SDS011;71057;51.436;6.768;2023-07-02T01:58:34;10.53;;;5.03;;
81648;SDS011;71057;51.436;6.768;2023-07-02T02:00:59;9.60;;;5.00;;
81648;SDS011;71057;51.436;6.768;2023-07-02T02:03:25;9.83;;;4.80;;
81648;SDS011;71057;51.436;6.768;2023-07-02T02:05:50;10.82;;;6.53;;
81648;SDS011;71057;51.436;6.768;2023-07-02T02:08:15;10.75;;;5.53;;
81648;SDS011;71057;51.436;6.768;2023-07-02T02:10:41;9.60;;;5.70;;
81648;SDS011;71057;51.436;6.768;2023-07-02T02:13:06;10.20;;;5.15;;
81648;SDS011;71057;51.436;6.768;2023-07-02T02:15:31;13.07;;;5.47;;
81648;SDS011;71057;51.436;6.768;2023-07-02T02:17:57;13.47;;;5.23;;
81648;SDS011;71057;51.436;6.768;2023-07-02T02:20:22;9.67;;;5.30;;
81648;SDS011;71057;51.436;6.768;2023-07-02T02:22:47;15.03;;;6.27;;
81648;SDS011;71057;51.436;6.768;2023-07-02T02:25:12;12.37;;;4.60;;
81648;SDS011;71057;51.436;6.768;2023-07-02T02:27:38;9.90;;;5.37;;
81648;SDS011;71057;51.436;6.768;2023-07-02T02:30:03;12.90;;;5.87;;
81648;SDS011;71057;51.436;6.768;2023-07-02T02:32:29;12.77;;;5.55;;
81648;SDS011;71057;51.436;6.768;2023-07-02T02:34:55;11.00;;;5.55;;
81648;SDS011;71057;51.436;6.768;2023-07-02T02:37:20;13.57;;;5.97;;
81648;SDS011;71057;51.436;6.768;2023-07-02T02:39:46;12.18;;;6.38;;
81648;SDS011;71057;51.436;6.768;2023-07-02T02:42:11;13.52;;;6.45;;
81648;SDS011;71057;51.436;6.768;2023-07-02T02:44:37;13.17;;;6.37;;
81648;SDS011;71057;51.436;6.768;2023-07-02T02:47:03;17.13;;;6.55;;
81648;SDS011;71057;51.436;6.768;2023-07-02T02:49:29;10.48;;;6.00;;
81648;SDS011;71057;51.436;6.768;2023-07-02T02:51:55;12.57;;;6.80;;
81648;SDS011;71057;51.436;6.768;2023-07-02T02:54:20;13.30;;;6.68;;
81648;SDS011;71057;51.436;6.768;2023-07-02T02:56:45;15.13;;;7.53;;
81648;SDS011;71057;51.436;6.768;2023-07-02T02:59:10;11.93;;;6.70;;
81648;SDS011;71057;51.436;6.768;2023-07-02T03:01:36;14.43;;;6.70;;
81648;SDS011;71057;51.436;6.768;2023-07-02T03:04:01;12.55;;;7.47;;
81648;SDS011;71057;51.436;6.768;2023-07-02T03:06:26;17.07;;;7.60;;
81648;SDS011;71057;51.436;6.768;2023-07-02T03:08:52;15.20;;;7.10;;
81648;SDS011;71057;51.436;6.768;2023-07-02T03:11:17;16.77;;;7.73;;
81648;SDS011;71057;51.436;6.768;2023-07-02T03:13:42;16.53;;;8.33;;
81648;SDS011;71057;51.436;6.768;2023-07-02T03:16:07;19.43;;;7.60;;
81648;SDS011;71057;51.436;6.768;2023-07-02T03:18:33;13.25;;;6.57;;
81648;SDS011;71057;51.436;6.768;2023-07-02T03:20:59;14.90;;;7.20;;
81648;SDS011;71057;51.436;6.768;2023-07-02T03:23:24;18.33;;;8.60;;
81648;SDS011;71057;51.436;6.768;2023-07-02T03:25:50;15.23;;;7.87;;
81648;SDS011;71057;51.436;6.768;2023-07-02T03:28:15;17.23;;;8.33;;
81648;SDS011;71057;51.436;6.768;2023-07-02T03:30:40;14.50;;;7.35;;
81648;SDS011;71057;51.436;6.768;2023-07-02T03:33:06;15.30;;;8.50;;
81648;SDS011;71057;51.436;6.768;2023-07-02T03:35:31;15.27;;;8.40;;
81648;SDS011;71057;51.436;6.768;2023-07-02T03:37:56;17.60;;;8.53;;
81648;SDS011;71057;51.436;6.768;2023-07-02T03:40:22;17.25;;;7.82;;
81648;SDS011;71057;51.436;6.768;2023-07-02T03:42:48;17.70;;;7.60;;
81648;SDS011;71057;51.436;6.768;2023-07-02T03:45:13;15.47;;;7.37;;
81648;SDS011;71057;51.436;6.768;2023-07-02T03:47:38;15.35;;;7.88;;
81648;SDS011;71057;51.436;6.768;2023-07-02T03:50:04;15.47;;;7.60;;
81648;SDS011;71057;51.436;6.768;2023-07-02T03:52:29;22.65;;;9.18;;
81648;SDS011;71057;51.436;6.768;2023-07-02T03:54:55;19.73;;;9.97;;
81648;SDS011;71057;51.436;6.768;2023-07-02T03:57:20;19.45;;;8.55;;
81648;SDS011;71057;51.436;6.768;2023-07-02T03:59:45;20.07;;;9.77;;
81648;SDS011;71057;51.436;6.768;2023-07-02T04:02:11;19.05;;;8.68;;
81648;SDS011;71057;51.436;6.768;2023-07-02T04:04:36;18.03;;;8.23;;
81648;SDS011;71057;51.436;6.768;2023-07-02T04:07:01;17.33;;;9.17;;
81648;SDS011;71057;51.436;6.768;2023-07-02T04:09:26;18.60;;;9.40;;
81648;SDS011;71057;51.436;6.768;2023-07-02T04:11:52;18.60;;;8.60;;
81648;SDS011;71057;51.436;6.768;2023-07-02T04:14:17;19.83;;;9.47;;
81648;SDS011;71057;51.436;6.768;2023-07-02T04:16:43;15.60;;;8.23;;
81648;SDS011;71057;51.436;6.768;2023-07-02T04:19:09;18.38;;;8.52;;
81648;SDS011;71057;51.436;6.768;2023-07-02T04:21:35;18.08;;;8.65;;
81648;SDS011;71057;51.436;6.768;2023-07-02T04:24:00;21.50;;;10.25;;
81648;SDS011;71057;51.436;6.768;2023-07-02T04:26:25;18.90;;;8.53;;
81648;SDS011;71057;51.436;6.768;2023-07-02T04:28:51;21.70;;;10.48;;
81648;SDS011;71057;51.436;6.768;2023-07-02T04:31:18;19.35;;;9.73;;
81648;SDS011;71057;51.436;6.768;2023-07-02T04:33:44;20.80;;;10.18;;
81648;SDS011;71057;51.436;6.768;2023-07-02T04:36:09;20.90;;;9.27;;
81648;SDS011;71057;51.436;6.768;2023-07-02T04:38:34;22.83;;;10.17;;
81648;SDS011;71057;51.436;6.768;2023-07-02T04:41:00;19.67;;;9.53;;
81648;SDS011;71057;51.436;6.768;2023-07-02T04:43:30;19.67;;;9.85;;
81648;SDS011;71057;51.436;6.768;2023-07-02T04:45:57;23.00;;;10.70;;
81648;SDS011;71057;51.436;6.768;2023-07-02T04:48:22;23.45;;;11.15;;
81648;SDS011;71057;51.436;6.768;2023-07-02T04:50:47;21.05;;;10.77;;
81648;SDS011;71057;51.436;6.768;2023-07-02T04:53:13;20.27;;;10.77;;
81648;SDS011;71057;51.436;6.768;2023-07-02T04:55:38;19.90;;;9.93;;
81648;SDS011;71057;51.436;6.768;2023-07-02T04:58:03;24.10;;;11.00;;
81648;SDS011;71057;51.436;6.768;2023-07-02T05:00:28;20.30;;;10.00;;
81648;SDS011;71057;51.436;6.768;2023-07-02T05:02:54;21.30;;;10.13;;
81648;SDS011;71057;51.436;6.768;2023-07-02T05:05:19;20.13;;;10.60;;
81648;SDS011;71057;51.436;6.768;2023-07-02T05:07:44;19.77;;;9.70;;
81648;SDS011;71057;51.436;6.768;2023-07-02T05:10:10;24.70;;;10.43;;
81648;SDS011;71057;51.436;6.768;2023-07-02T05:12:35;18.20;;;10.07;;
81648;SDS011;71057;51.436;6.768;2023-07-02T05:15:00;19.97;;;10.80;;
81648;SDS011;71057;51.436;6.768;2023-07-02T05:17:25;21.20;;;10.63;;
81648;SDS011;71057;51.436;6.768;2023-07-02T05:19:51;21.27;;;10.90;;
81648;SDS011;71057;51.436;6.768;2023-07-02T05:22:16;23.33;;;10.35;;
81648;SDS011;71057;51.436;6.768;2023-07-02T05:24:42;18.48;;;10.13;;
81648;SDS011;71057;51.436;6.768;2023-07-02T05:27:08;21.63;;;10.90;;
81648;SDS011;71057;51.436;6.768;2023-07-02T05:29:34;21.90;;;11.57;;
81648;SDS011;71057;51.436;6.768;2023-07-02T05:31:59;22.63;;;11.18;;
81648;SDS011;71057;51.436;6.768;2023-07-02T05:34:25;21.90;;;10.70;;
81648;SDS011;71057;51.436;6.768;2023-07-02T05:36:50;22.58;;;10.40;;
81648;SDS011;71057;51.436;6.768;2023-07-02T05:39:15;25.35;;;11.43;;
81648;SDS011;71057;51.436;6.768;2023-07-02T05:41:41;22.10;;;12.00;;
81648;SDS011;71057;51.436;6.768;2023-07-02T05:44:06;24.10;;;11.57;;
81648;SDS011;71057;51.436;6.768;2023-07-02T05:46:31;25.93;;;10.70;;
81648;SDS011;71057;51.436;6.768;2023-07-02T05:48:56;24.53;;;10.47;;
81648;SDS011;71057;51.436;6.768;2023-07-02T05:51:22;20.20;;;10.23;;
81648;SDS011;71057;51.436;6.768;2023-07-02T05:53:49;19.35;;;10.05;;
81648;SDS011;71057;51.436;6.768;2023-07-02T05:56:15;22.83;;;10.93;;
81648;SDS011;71057;51.436;6.768;2023-07-02T05:58:40;22.33;;;10.07;;
81648;SDS011;71057;51.436;6.768;2023-07-02T06:01:05;21.93;;;11.43;;
81648;SDS011;71057;51.436;6.768;2023-07-02T06:03:31;20.23;;;10.57;;
81648;SDS011;71057;51.436;6.768;2023-07-02T06:05:56;19.42;;;11.25;;
81648;SDS011;71057;51.436;6.768;2023-07-02T06:08:22;23.47;;;10.30;;
81648;SDS011;71057;51.436;6.768;2023-07-02T06:10:47;21.73;;;9.88;;
81648;SDS011;71057;51.436;6.768;2023-07-02T06:13:13;17.67;;;8.70;;
81648;SDS011;71057;51.436;6.768;2023-07-02T06:15:39;18.77;;;9.65;;
81648;SDS011;71057;51.436;6.768;2023-07-02T06:18:04;19.67;;;8.95;;
81648;SDS011;71057;51.436;6.768;2023-07-02T06:20:30;21.20;;;8.82;;
81648;SDS011;71057;51.436;6.768;2023-07-02T06:22:55;18.90;;;8.67;;
81648;SDS011;71057;51.436;6.768;2023-07-02T06:25:20;23.93;;;8.87;;
81648;SDS011;71057;51.436;6.768;2023-07-02T06:27:46;16.70;;;9.07;;
81648;SDS011;71057;51.436;6.768;2023-07-02T06:30:11;15.23;;;8.63;;
81648;SDS011;71057;51.436;6.768;2023-07-02T06:32:37;19.23;;;9.02;;
81648;SDS011;71057;51.436;6.768;2023-07-02T06:35:03;20.27;;;8.73;;
81648;SDS011;71057;51.436;6.768;2023-07-02T06:37:31;19.13;;;8.80;;
81648;SDS011;71057;51.436;6.768;2023-07-02T06:39:56;19.90;;;8.63;;
81648;SDS011;71057;51.436;6.768;2023-07-02T06:42:21;20.95;;;9.95;;
81648;SDS011;71057;51.436;6.768;2023-07-02T06:44:47;19.40;;;8.77;;
81648;SDS011;71057;51.436;6.768;2023-07-02T06:47:12;23.07;;;9.23;;
81648;SDS011;71057;51.436;6.768;2023-07-02T06:49:37;20.10;;;9.57;;
81648;SDS011;71057;51.436;6.768;2023-07-02T06:52:03;19.27;;;9.90;;
81648;SDS011;71057;51.436;6.768;2023-07-02T06:54:28;20.02;;;9.90;;
81648;SDS011;71057;51.436;6.768;2023-07-02T06:56:53;22.37;;;9.43;;
81648;SDS011;71057;51.436;6.768;2023-07-02T06:59:21;24.27;;;9.73;;
81648;SDS011;71057;51.436;6.768;2023-07-02T07:01:47;18.35;;;8.90;;
81648;SDS011;71057;51.436;6.768;2023-07-02T07:04:13;21.83;;;8.77;;
81648;SDS011;71057;51.436;6.768;2023-07-02T07:06:39;20.37;;;8.67;;
81648;SDS011;71057;51.436;6.768;2023-07-02T07:09:04;21.35;;;9.50;;
81648;SDS011;71057;51.436;6.768;2023-07-02T07:11:29;21.57;;;9.60;;
81648;SDS011;71057;51.436;6.768;2023-07-02T07:13:55;20.13;;;8.82;;
81648;SDS011;71057;51.436;6.768;2023-07-02T07:16:20;23.25;;;10.90;;
81648;SDS011;71057;51.436;6.768;2023-07-02T07:18:45;19.33;;;8.25;;
81648;SDS011;71057;51.436;6.768;2023-07-02T07:21:11;18.92;;;8.65;;
81648;SDS011;71057;51.436;6.768;2023-07-02T07:23:36;18.30;;;7.93;;
81648;SDS011;71057;51.436;6.768;2023-07-02T07:26:01;16.40;;;8.37;;
81648;SDS011;71057;51.436;6.768;2023-07-02T07:28:27;16.60;;;7.73;;
81648;SDS011;71057;51.436;6.768;2023-07-02T07:30:52;14.83;;;7.23;;
81648;SDS011;71057;51.436;6.768;2023-07-02T07:33:17;12.47;;;6.63;;
81648;SDS011;71057;51.436;6.768;2023-07-02T07:35:42;12.97;;;6.50;;
81648;SDS011;71057;51.436;6.768;2023-07-02T07:38:08;17.55;;;6.75;;
81648;SDS011;71057;51.436;6.768;2023-07-02T07:40:33;14.48;;;6.55;;
81648;SDS011;71057;51.436;6.768;2023-07-02T07:42:58;17.70;;;6.80;;
81648;SDS011;71057;51.436;6.768;2023-07-02T07:45:24;12.57;;;6.47;;
81648;SDS011;71057;51.436;6.768;2023-07-02T07:47:49;15.07;;;6.18;;
81648;SDS011;71057;51.436;6.768;2023-07-02T07:50:14;13.80;;;6.83;;
81648;SDS011;71057;51.436;6.768;2023-07-02T07:52:40;14.60;;;6.82;;
81648;SDS011;71057;51.436;6.768;2023-07-02T07:55:08;14.05;;;6.55;;
81648;SDS011;71057;51.436;6.768;2023-07-02T07:57:34;13.02;;;5.95;;
81648;SDS011;71057;51.436;6.768;2023-07-02T08:00:01;13.13;;;6.30;;
81648;SDS011;71057;51.436;6.768;2023-07-02T08:02:29;15.65;;;6.32;;
81648;SDS011;71057;51.436;6.768;2023-07-02T08:04:55;14.40;;;5.80;;
81648;SDS011;71057;51.436;6.768;2023-07-02T08:07:20;10.73;;;5.50;;
81648;SDS011;71057;51.436;6.768;2023-07-02T08:09:45;13.43;;;5.27;;
81648;SDS011;71057;51.436;6.768;2023-07-02T08:12:10;15.33;;;6.13;;
81648;SDS011;71057;51.436;6.768;2023-07-02T08:14:36;13.93;;;5.23;;
81648;SDS011;71057;51.436;6.768;2023-07-02T08:17:01;12.57;;;5.43;;
81648;SDS011;71057;51.436;6.768;2023-07-02T08:19:26;12.10;;;5.33;;
81648;SDS011;71057;51.436;6.768;2023-07-02T08:21:51;13.45;;;5.95;;
81648;SDS011;71057;51.436;6.768;2023-07-02T08:24:17;11.83;;;5.67;;
81648;SDS011;71057;51.436;6.768;2023-07-02T08:26:42;13.98;;;5.65;;
81648;SDS011;71057;51.436;6.768;2023-07-02T08:29:09;11.63;;;5.55;;
81648;SDS011;71057;51.436;6.768;2023-07-02T08:31:35;10.57;;;4.67;;
81648;SDS011;71057;51.436;6.768;2023-07-02T08:34:00;11.48;;;4.70;;
81648;SDS011;71057;51.436;6.768;2023-07-02T08:36:25;9.50;;;4.30;;
81648;SDS011;71057;51.436;6.768;2023-07-02T08:38:50;13.90;;;5.73;;
81648;SDS011;71057;51.436;6.768;2023-07-02T08:41:16;12.47;;;4.90;;
81648;SDS011;71057;51.436;6.768;2023-07-02T08:43:41;11.38;;;4.78;;
81648;SDS011;71057;51.436;6.768;2023-07-02T08:46:08;11.88;;;5.30;;
81648;SDS011;71057;51.436;6.768;2023-07-02T08:48:35;9.40;;;5.35;;
81648;SDS011;71057;51.436;6.768;2023-07-02T08:51:00;11.68;;;5.75;;
81648;SDS011;71057;51.436;6.768;2023-07-02T08:53:29;9.63;;;5.68;;
81648;SDS011;71057;51.436;6.768;2023-07-02T08:55:58;7.78;;;4.10;;
81648;SDS011;71057;51.436;6.768;2023-07-02T08:58:24;10.02;;;5.10;;
81648;SDS011;71057;51.436;6.768;2023-07-02T09:03:31;10.63;;;4.82;;
81648;SDS011;71057;51.436;6.768;2023-07-02T09:05:56;13.43;;;6.00;;
81648;SDS011;71057;51.436;6.768;2023-07-02T09:08:27;10.67;;;6.00;;
81648;SDS011;71057;51.436;6.768;2023-07-02T09:11:31;11.80;;;5.68;;
81648;SDS011;71057;51.436;6.768;2023-07-02T09:13:50;12.82;;;5.57;;
81648;SDS011;71057;51.436;6.768;2023-07-02T09:19:02;13.50;;;5.50;;
81648;SDS011;71057;51.436;6.768;2023-07-02T09:24:19;12.80;;;5.60;;
81648;SDS011;71057;51.436;6.768;2023-07-02T09:26:48;10.23;;;5.00;;
81648;SDS011;71057;51.436;6.768;2023-07-02T09:29:31;12.73;;;6.00;;
81648;SDS011;71057;51.436;6.768;2023-07-02T09:32:06;12.95;;;5.80;;
81648;SDS011;71057;51.436;6.768;2023-07-02T09:34:33;13.00;;;5.95;;
81648;SDS011;71057;51.436;6.768;2023-07-02T09:37:00;12.20;;;5.68;;
81648;SDS011;71057;51.436;6.768;2023-07-02T09:39:30;11.32;;;6.18;;
81648;SDS011;71057;51.436;6.768;2023-07-02T09:41:57;13.20;;;6.32;;
81648;SDS011;71057;51.436;6.768;2023-07-02T09:44:31;13.13;;;6.10;;
81648;SDS011;71057;51.436;6.768;2023-07-02T09:47:07;16.13;;;6.43;;
81648;SDS011;71057;51.436;6.768;2023-07-02T09:49:34;13.55;;;5.63;;
81648;SDS011;71057;51.436;6.768;2023-07-02T09:52:07;11.30;;;5.80;;
81648;SDS011;71057;51.436;6.768;2023-07-02T09:54:34;11.88;;;5.13;;
81648;SDS011;71057;51.436;6.768;2023-07-02T09:57:00;13.02;;;5.45;;
81648;SDS011;71057;51.436;6.768;2023-07-02T09:59:25;9.63;;;4.40;;
81648;SDS011;71057;51.436;6.768;2023-07-02T10:01:51;9.27;;;4.40;;
81648;SDS011;71057;51.436;6.768;2023-07-02T10:04:17;12.63;;;4.78;;
81648;SDS011;71057;51.436;6.768;2023-07-02T10:06:45;9.70;;;4.38;;
81648;SDS011;71057;51.436;6.768;2023-07-02T10:09:18;11.23;;;4.75;;
81648;SDS011;71057;51.436;6.768;2023-07-02T10:11:45;9.73;;;5.03;;
81648;SDS011;71057;51.436;6.768;2023-07-02T10:14:11;12.15;;;4.80;;
81648;SDS011;71057;51.436;6.768;2023-07-02T10:16:49;8.60;;;4.65;;
81648;SDS011;71057;51.436;6.768;2023-07-02T10:19:16;12.65;;;5.43;;
81648;SDS011;71057;51.436;6.768;2023-07-02T10:21:41;9.32;;;4.68;;
81648;SDS011;71057;51.436;6.768;2023-07-02T10:24:13;10.82;;;5.10;;
81648;SDS011;71057;51.436;6.768;2023-07-02T10:26:53;11.77;;;5.55;;
81648;SDS011;71057;51.436;6.768;2023-07-02T10:29:21;11.35;;;4.75;;
81648;SDS011;71057;51.436;6.768;2023-07-02T10:31:51;14.45;;;5.63;;
81648;SDS011;71057;51.436;6.768;2023-07-02T10:34:38;10.77;;;5.13;;
81648;SDS011;71057;51.436;6.768;2023-07-02T10:37:03;11.93;;;5.68;;
81648;SDS011;71057;51.436;6.768;2023-07-02T10:39:29;11.32;;;6.10;;
81648;SDS011;71057;51.436;6.768;2023-07-02T10:42:08;9.43;;;4.97;;
81648;SDS011;71057;51.436;6.768;2023-07-02T10:44:34;10.32;;;5.07;;
81648;SDS011;71057;51.436;6.768;2023-07-02T10:47:11;9.82;;;5.13;;
81648;SDS011;71057;51.436;6.768;2023-07-02T10:49:36;8.07;;;4.07;;
81648;SDS011;71057;51.436;6.768;2023-07-02T10:52:02;9.73;;;4.13;;
81648;SDS011;71057;51.436;6.768;2023-07-02T10:54:44;7.57;;;4.00;;
81648;SDS011;71057;51.436;6.768;2023-07-02T10:57:12;9.85;;;4.68;;
81648;SDS011;71057;51.436;6.768;2023-07-02T10:59:38;12.77;;;4.82;;
81648;SDS011;71057;51.436;6.768;2023-07-02T11:02:04;8.73;;;4.70;;
81648;SDS011;71057;51.436;6.768;2023-07-02T11:04:31;9.88;;;4.65;;
81648;SDS011;71057;51.436;6.768;2023-07-02T11:06:58;11.32;;;5.05;;
81648;SDS011;71057;51.436;6.768;2023-07-02T11:09:24;10.27;;;4.55;;
81648;SDS011;71057;51.436;6.768;2023-07-02T11:11:54;9.43;;;4.40;;
81648;SDS011;71057;51.436;6.768;2023-07-02T11:14:33;10.70;;;4.90;;
81648;SDS011;71057;51.436;6.768;2023-07-02T11:17:03;12.10;;;4.72;;
81648;SDS011;71057;51.436;6.768;2023-07-02T11:19:33;11.45;;;5.05;;
81648;SDS011;71057;51.436;6.768;2023-07-02T11:22:01;10.50;;;4.50;;
81648;SDS011;71057;51.436;6.768;2023-07-02T11:24:31;8.93;;;4.65;;
81648;SDS011;71057;51.436;6.768;2023-07-02T11:26:59;10.80;;;4.55;;
81648;SDS011;71057;51.436;6.768;2023-07-02T11:29:26;10.82;;;4.88;;
81648;SDS011;71057;51.436;6.768;2023-07-02T11:31:53;9.15;;;5.20;;
81648;SDS011;71057;51.436;6.768;2023-07-02T11:34:19;8.73;;;4.50;;
81648;SDS011;71057;51.436;6.768;2023-07-02T11:36:46;10.13;;;4.30;;
81648;SDS011;71057;51.436;6.768;2023-07-02T11:39:12;8.13;;;4.18;;
81648;SDS011;71057;51.436;6.768;2023-07-02T11:41:37;8.57;;;4.63;;
81648;SDS011;71057;51.436;6.768;2023-07-02T11:44:03;9.77;;;4.50;;
81648;SDS011;71057;51.436;6.768;2023-07-02T11:46:29;8.43;;;5.00;;
81648;SDS011;71057;51.436;6.768;2023-07-02T11:48:54;8.57;;;4.30;;
81648;SDS011;71057;51.436;6.768;2023-07-02T11:51:19;8.67;;;4.70;;
81648;SDS011;71057;51.436;6.768;2023-07-02T11:53:45;10.40;;;5.00;;
81648;SDS011;71057;51.436;6.768;2023-07-02T11:56:10;9.83;;;5.40;;
81648;SDS011;71057;51.436;6.768;2023-07-02T11:58:35;9.53;;;4.87;;
81648;SDS011;71057;51.436;6.768;2023-07-02T12:01:00;8.47;;;4.30;;
81648;SDS011;71057;51.436;6.768;2023-07-02T12:03:26;9.88;;;4.43;;
81648;SDS011;71057;51.436;6.768;2023-07-02T12:05:51;10.27;;;4.40;;
81648;SDS011;71057;51.436;6.768;2023-07-02T12:08:16;9.13;;;4.60;;
81648;SDS011;71057;51.436;6.768;2023-07-02T12:10:42;9.50;;;4.80;;
81648;SDS011;71057;51.436;6.768;2023-07-02T12:13:07;10.07;;;4.43;;
81648;SDS011;71057;51.436;6.768;2023-07-02T12:15:32;9.53;;;4.47;;
81648;SDS011;71057;51.436;6.768;2023-07-02T12:17:58;9.88;;;5.05;;
81648;SDS011;71057;51.436;6.768;2023-07-02T12:20:23;8.77;;;4.93;;
81648;SDS011;71057;51.436;6.768;2023-07-02T12:22:48;12.00;;;4.93;;
81648;SDS011;71057;51.436;6.768;2023-07-02T12:25:14;11.23;;;4.97;;
81648;SDS011;71057;51.436;6.768;2023-07-02T12:27:39;9.23;;;4.65;;
81648;SDS011;71057;51.436;6.768;2023-07-02T12:30:05;8.75;;;4.47;;
81648;SDS011;71057;51.436;6.768;2023-07-02T12:32:30;10.77;;;5.15;;
81648;SDS011;71057;51.436;6.768;2023-07-02T12:34:56;7.90;;;4.47;;
81648;SDS011;71057;51.436;6.768;2023-07-02T12:37:21;11.53;;;5.37;;
81648;SDS011;71057;51.436;6.768;2023-07-02T12:39:46;9.27;;;5.45;;
81648;SDS011;71057;51.436;6.768;2023-07-02T12:42:12;11.52;;;5.97;;
81648;SDS011;71057;51.436;6.768;2023-07-02T12:44:37;10.00;;;5.50;;
81648;SDS011;71057;51.436;6.768;2023-07-02T12:47:03;10.73;;;5.10;;
81648;SDS011;71057;51.436;6.768;2023-07-02T12:49:28;9.60;;;5.55;;
81648;SDS011;71057;51.436;6.768;2023-07-02T12:51:53;11.87;;;5.73;;
81648;SDS011;71057;51.436;6.768;2023-07-02T12:54:19;13.37;;;6.30;;
81648;SDS011;71057;51.436;6.768;2023-07-02T12:56:44;12.00;;;6.25;;
81648;SDS011;71057;51.436;6.768;2023-07-02T12:59:09;10.57;;;5.30;;
81648;SDS011;71057;51.436;6.768;2023-07-02T13:01:34;12.50;;;6.20;;
81648;SDS011;71057;51.436;6.768;2023-07-02T13:04:00;12.85;;;6.70;;
81648;SDS011;71057;51.436;6.768;2023-07-02T13:06:25;12.88;;;7.25;;
81648;SDS011;71057;51.436;6.768;2023-07-02T13:08:51;10.60;;;6.37;;
81648;SDS011;71057;51.436;6.768;2023-07-02T13:11:16;11.40;;;5.95;;
81648;SDS011;71057;51.436;6.768;2023-07-02T13:13:41;11.27;;;6.30;;
81648;SDS011;71057;51.436;6.768;2023-07-02T13:16:07;12.57;;;6.40;;
81648;SDS011;71057;51.436;6.768;2023-07-02T13:18:32;11.47;;;6.87;;
81648;SDS011;71057;51.436;6.768;2023-07-02T13:20:57;11.60;;;5.90;;
81648;SDS011;71057;51.436;6.768;2023-07-02T13:23:22;10.93;;;6.30;;
81648;SDS011;71057;51.436;6.768;2023-07-02T13:25:48;10.83;;;5.97;;
81648;SDS011;71057;51.436;6.768;2023-07-02T13:28:13;11.40;;;6.70;;
81648;SDS011;71057;51.436;6.768;2023-07-02T13:30:38;10.50;;;6.13;;
81648;SDS011;71057;51.436;6.768;2023-07-02T13:33:03;12.10;;;7.37;;
81648;SDS011;71057;51.436;6.768;2023-07-02T13:35:29;14.87;;;6.67;;
81648;SDS011;71057;51.436;6.768;2023-07-02T13:37:54;15.13;;;7.20;;
81648;SDS011;71057;51.436;6.768;2023-07-02T13:40:19;12.13;;;6.13;;
81648;SDS011;71057;51.436;6.768;2023-07-02T13:42:45;12.82;;;6.22;;
81648;SDS011;71057;51.436;6.768;2023-07-02T13:45:10;10.85;;;6.18;;
81648;SDS011;71057;51.436;6.768;2023-07-02T13:47:36;11.93;;;6.55;;
81648;SDS011;71057;51.436;6.768;2023-07-02T13:50:02;11.80;;;6.35;;
81648;SDS011;71057;51.436;6.768;2023-07-02T13:52:28;12.10;;;7.47;;
81648;SDS011;71057;51.436;6.768;2023-07-02T13:54:54;14.30;;;6.93;;
81648;SDS011;71057;51.436;6.768;2023-07-02T13:57:19;10.33;;;5.93;;
81648;SDS011;71057;51.436;6.768;2023-07-02T13:59:45;11.32;;;6.18;;
81648;SDS011;71057;51.436;6.768;2023-07-02T14:02:10;11.80;;;6.73;;
81648;SDS011;71057;51.436;6.768;2023-07-02T14:04:35;11.40;;;6.67;;
81648;SDS011;71057;51.436;6.768;2023-07-02T14:07:02;13.53;;;6.50;;
81648;SDS011;71057;51.436;6.768;2023-07-02T14:09:28;12.15;;;7.13;;
81648;SDS011;71057;51.436;6.768;2023-07-02T14:11:53;14.33;;;7.27;;
81648;SDS011;71057;51.436;6.768;2023-07-02T14:14:18;11.80;;;7.43;;
81648;SDS011;71057;51.436;6.768;2023-07-02T14:16:44;13.50;;;8.07;;
81648;SDS011;71057;51.436;6.768;2023-07-02T14:19:09;10.47;;;6.67;;
81648;SDS011;71057;51.436;6.768;2023-07-02T14:21:34;16.45;;;7.95;;
81648;SDS011;71057;51.436;6.768;2023-07-02T14:24:00;16.67;;;6.77;;
81648;SDS011;71057;51.436;6.768;2023-07-02T14:26:25;11.90;;;7.35;;
81648;SDS011;71057;51.436;6.768;2023-07-02T14:28:50;13.70;;;6.90;;
81648;SDS011;71057;51.436;6.768;2023-07-02T14:31:16;14.70;;;7.33;;
81648;SDS011;71057;51.436;6.768;2023-07-02T14:33:41;12.63;;;7.13;;
81648;SDS011;71057;51.436;6.768;2023-07-02T14:36:07;13.88;;;7.50;;
81648;SDS011;71057;51.436;6.768;2023-07-02T14:38:32;12.02;;;6.95;;
81648;SDS011;71057;51.436;6.768;2023-07-02T14:40:58;13.43;;;8.00;;